createdAt,value
2019-05-09T13:47:11.222Z,98061.44
2019-05-09T13:49:45.231Z,98071.05
2019-05-09T13:52:18.574Z,98063.84
2019-05-09T13:54:51.154Z,98063.66
2019-05-09T13:57:24.634Z,98060.41
2019-05-09T13:59:58.532Z,98061.61
2019-05-09T14:02:32.251Z,98060.56
2019-05-09T14:05:08.584Z,98065.49
2019-05-09T14:07:40.719Z,98064.95
2019-05-09T14:10:14.317Z,98058.48
2019-05-09T14:13:04.616Z,98067.36
2019-05-09T14:15:23.074Z,98066.73
2019-05-09T14:17:58.247Z,98070.22
2019-05-09T14:20:31.385Z,98066.08
2019-05-09T14:23:04.062Z,98066.89
2019-05-09T14:25:38.122Z,98073.65
2019-05-09T14:28:11.557Z,98067.07
2019-05-09T14:30:47.677Z,98077.38
2019-05-09T14:33:21.312Z,98080.63
2019-05-09T14:35:54.893Z,98084.02
2019-05-09T14:38:28.415Z,98078.67
2019-05-09T14:41:02.012Z,98090.68
2019-05-09T14:43:35.549Z,98087.60
2019-05-09T14:46:12.089Z,98089.89
2019-05-09T14:48:45.191Z,98083.69
2019-05-09T14:51:19.306Z,98088.90
2019-05-09T14:53:52.341Z,98091.66
2019-05-09T14:56:27.953Z,98100.27
2019-05-09T14:59:00.831Z,98096.86
2019-05-09T15:01:34.235Z,98098.08
2019-05-09T15:04:09.019Z,98109.92
2019-05-09T15:06:42.692Z,98102.85
2019-05-09T15:09:18.170Z,98097.98
2019-05-09T15:11:51.883Z,98107.92
2019-05-09T15:14:24.511Z,98108.73
2019-05-09T15:16:59.028Z,98112.63
2019-05-09T15:19:32.249Z,98114.14
2019-05-09T15:22:08.256Z,98107.76
2019-05-09T15:24:42.054Z,98112.05
2019-05-09T15:27:17.533Z,98115.19
2019-05-09T15:29:49.932Z,98112.70
2019-05-09T15:32:23.714Z,98117.23
2019-05-09T15:34:58.646Z,98117.89
2019-05-09T15:37:32.460Z,98122.09
2019-05-09T15:40:08.636Z,98120.34
2019-05-09T15:42:42.190Z,98121.84
2019-05-09T15:45:15.183Z,98123.88
2019-05-09T15:47:48.781Z,98133.16
2019-05-09T15:50:23.414Z,98139.58
2019-05-09T15:52:57.995Z,98132.55
2019-05-09T15:55:31.227Z,98131.86
2019-05-09T15:58:04.332Z,98136.05
2019-05-09T16:00:38.649Z,98135.44
2019-05-09T16:03:12.337Z,98136.47
2019-05-09T16:05:47.925Z,98135.73
2019-05-09T16:08:21.583Z,98140.63
2019-05-09T16:10:53.916Z,98135.23
2019-05-09T16:13:28.478Z,98133.87
2019-05-09T16:16:01.815Z,98141.98
2019-05-09T16:18:35.377Z,98142.80
2019-05-09T16:21:09.267Z,98148.48
2019-05-09T16:23:42.788Z,98139.34
2019-05-09T16:26:15.387Z,98154.69
2019-05-09T16:28:49.370Z,98142.98
2019-05-09T16:31:22.719Z,98146.11
2019-05-09T16:33:58.180Z,98156.09
2019-05-09T16:36:31.617Z,98147.45
2019-05-09T16:39:07.435Z,98156.48
2019-05-09T16:41:41.532Z,98157.75
2019-05-09T16:44:15.011Z,98155.82
2019-05-09T16:46:48.772Z,98161.14
2019-05-09T16:49:25.955Z,98166.45
2019-05-09T16:51:58.172Z,98161.72
2019-05-09T16:54:35.392Z,98160.71
2019-05-09T16:57:08.622Z,98165.36
2019-05-09T16:59:42.521Z,98169.80
2019-05-09T17:02:21.326Z,98172.07
2019-05-09T17:04:50.645Z,98175.30
2019-05-09T17:07:23.362Z,98171.94
2019-05-09T17:09:57.743Z,98175.16
2019-05-09T17:12:31.487Z,98185.43
2019-05-09T17:15:05.273Z,98176.72
2019-05-09T17:17:38.864Z,98175.02
2019-05-09T17:20:14.364Z,98177.52
2019-05-09T17:23:11.526Z,98187.97
2019-05-09T17:25:40.903Z,98181.52
2019-05-09T17:28:14.657Z,98180.06
2019-05-09T17:30:49.453Z,98187.81
2019-05-09T17:33:23.410Z,98188.36
2019-05-09T17:35:57.734Z,98184.75
2019-05-09T17:38:31.954Z,98192.27
2019-05-09T17:41:05.053Z,98192.77
2019-05-09T17:43:38.401Z,98197.26
2019-05-09T17:46:11.953Z,98199.84
2019-05-09T17:48:45.171Z,98202.58
2019-05-09T17:51:32.322Z,98198.88
2019-05-09T17:53:54.201Z,98194.95
2019-05-09T17:56:27.179Z,98204.58
2019-05-09T17:59:01.189Z,98206.12
2019-05-09T18:01:34.382Z,98214.56
2019-05-09T18:04:09.230Z,98207.86
2019-05-09T18:06:43.968Z,98217.42
2019-05-09T18:09:18.946Z,98215.69
2019-05-09T18:11:52.044Z,98215.81
2019-05-09T18:14:27.488Z,98220.23
2019-05-09T18:17:00.623Z,98221.31
2019-05-09T18:19:34.442Z,98226.34
2019-05-09T18:22:08.226Z,98233.80
2019-05-09T18:24:42.184Z,98225.37
2019-05-09T18:27:15.010Z,98231.22
2019-05-09T18:29:48.482Z,98235.05
2019-05-09T18:32:43.609Z,98237.52
2019-05-09T18:35:19.375Z,98240.18
2019-05-09T18:37:53.782Z,98249.21
2019-05-09T18:40:28.329Z,98249.09
2019-05-09T18:43:01.328Z,98259.62
2019-05-09T18:45:37.399Z,98261.21
2019-05-09T18:48:10.833Z,98261.56
2019-05-09T18:50:44.188Z,98270.58
2019-05-09T18:53:17.146Z,98266.14
2019-05-09T18:55:50.656Z,98276.58
2019-05-09T18:58:24.901Z,98274.69
2019-05-09T19:00:57.654Z,98276.70
2019-05-09T19:03:31.232Z,98279.30
2019-05-09T19:06:05.155Z,98278.57
2019-05-09T19:08:38.745Z,98285.02
2019-05-09T19:11:12.264Z,98280.16
2019-05-09T19:13:45.880Z,98286.27
2019-05-09T19:16:36.222Z,98284.08
2019-05-09T19:19:34.551Z,98280.88
2019-05-09T19:22:21.403Z,98290.75
2019-05-09T19:24:43.286Z,98293.67
2019-05-09T19:27:17.224Z,98296.55
2019-05-09T19:29:50.026Z,98298.08
2019-05-09T19:32:23.153Z,98308.44
2019-05-09T19:34:56.293Z,98313.58
2019-05-09T19:37:29.061Z,98306.41
2019-05-09T19:40:02.343Z,98305.41
2019-05-09T19:42:36.114Z,98313.48
2019-05-09T19:45:09.965Z,98311.95
2019-05-09T19:47:43.924Z,98312.84
2019-05-09T19:50:16.889Z,98316.73
2019-05-09T19:52:50.004Z,98320.02
2019-05-09T19:55:23.833Z,98320.38
2019-05-09T19:57:57.741Z,98334.27
2019-05-09T20:00:30.879Z,98332.88
2019-05-09T20:03:04.041Z,98341.02
2019-05-09T20:05:36.816Z,98344.16
2019-05-09T20:08:10.006Z,98344.48
2019-05-09T20:11:01.889Z,98346.91
2019-05-09T20:13:56.758Z,98355.61
2019-05-09T20:16:31.940Z,98357.58
2019-05-09T20:19:06.047Z,98353.67
2019-05-09T20:21:39.105Z,98352.77
2019-05-09T20:24:12.277Z,98361.74
2019-05-09T20:26:45.273Z,98365.86
2019-05-09T20:29:18.473Z,98365.56
2019-05-09T20:31:51.689Z,98371.78
2019-05-09T20:34:25.278Z,98368.86
2019-05-09T20:36:58.286Z,98376.27
2019-05-09T20:39:32.229Z,98376.30
2019-05-09T20:42:06.515Z,98371.47
2019-05-09T20:44:39.455Z,98376.16
2019-05-09T20:47:13.345Z,98372.89
2019-05-09T20:49:46.936Z,98377.48
2019-05-09T20:52:22.894Z,98380.24
2019-05-09T20:54:56.305Z,98386.80
2019-05-09T20:57:29.336Z,98387.20
2019-05-09T21:00:02.597Z,98393.28
2019-05-09T21:02:35.746Z,98384.98
2019-05-09T21:05:08.889Z,98386.80
2019-05-09T21:07:42.878Z,98395.02
2019-05-09T21:10:17.426Z,98392.56
2019-05-09T21:12:50.177Z,98394.38
2019-05-09T21:15:24.070Z,98397.10
2019-05-09T21:17:57.309Z,98402.77
2019-05-09T21:20:30.899Z,98396.81
2019-05-09T21:23:04.005Z,98396.64
2019-05-09T21:25:37.372Z,98406.79
2019-05-09T21:28:10.608Z,98409.25
2019-05-09T21:30:42.940Z,98414.05
2019-05-09T21:33:16.260Z,98415.41
2019-05-09T21:35:49.763Z,98421.30
2019-05-09T21:38:22.094Z,98419.77
2019-05-09T21:40:56.090Z,98416.94
2019-05-09T21:43:29.528Z,98420.84
2019-05-09T21:46:02.352Z,98428.80
2019-05-09T21:48:38.644Z,98430.33
2019-05-09T21:51:12.629Z,98434.33
2019-05-09T21:53:46.233Z,98431.60
2019-05-09T21:56:19.821Z,98440.11
2019-05-09T21:58:52.473Z,98440.48
2019-05-09T22:01:25.545Z,98451.64
2019-05-09T22:03:59.080Z,98456.64
2019-05-09T22:06:32.142Z,98453.72
2019-05-09T22:09:09.130Z,98458.11
2019-05-09T22:11:42.924Z,98454.77
2019-05-09T22:14:15.934Z,98464.80
2019-05-09T22:16:49.619Z,98461.91
2019-05-09T22:19:23.347Z,98462.59
2019-05-09T22:21:56.993Z,98459.94
2019-05-09T22:24:29.703Z,98461.40
2019-05-09T22:27:03.099Z,98468.26
2019-05-09T22:29:36.856Z,98468.89
2019-05-09T22:32:10.578Z,98468.17
2019-05-09T22:34:43.690Z,98470.89
2019-05-09T22:37:15.913Z,98467.97
2019-05-09T22:39:49.359Z,98470.11
2019-05-09T22:42:22.415Z,98477.33
2019-05-09T22:44:55.860Z,98483.20
2019-05-09T22:47:30.379Z,98489.81
2019-05-09T22:50:03.359Z,98488.07
2019-05-09T22:52:35.611Z,98492.78
2019-05-09T22:55:08.945Z,98495.14
2019-05-09T22:57:42.552Z,98493.17
2019-05-09T23:00:16.527Z,98485.65
2019-05-09T23:02:50.152Z,98490.08
2019-05-09T23:05:23.942Z,98495.94
2019-05-09T23:07:56.954Z,98495.76
2019-05-09T23:10:30.959Z,98499.97
2019-05-09T23:13:03.852Z,98495.12
2019-05-09T23:15:37.033Z,98496.41
2019-05-09T23:18:10.441Z,98499.70
2019-05-09T23:20:49.347Z,98502.73
2019-05-09T23:23:34.364Z,98504.27
2019-05-09T23:26:08.271Z,98508.55
2019-05-09T23:28:42.035Z,98511.27
2019-05-09T23:31:19.534Z,98508.73
2019-05-09T23:33:52.533Z,98511.64
2019-05-09T23:36:26.323Z,98513.81
2019-05-09T23:39:13.347Z,98507.04
2019-05-09T23:41:47.133Z,98513.44
2019-05-09T23:44:20.561Z,98510.54
2019-05-09T23:46:53.644Z,98517.34
2019-05-09T23:49:26.203Z,98510.91
2019-05-09T23:51:59.303Z,98513.45
2019-05-09T23:54:50.518Z,98522.39
2019-05-09T23:57:41.743Z,98522.21
